Sy Asahi — ZGBG5 — position and weather

sailwx.info

Track history (hours):
 
Tides and Currents Weather Stations Pressure Air Temp Water Temp Dewpoint Dewpoint Depression Visibility Wind Speed Wind Dir Waves Ship Positions

Sy Asahi

Last reported at 2016-Aug-23 18:30 UTC. Time now 2016-Aug-29 00:12 UTC.
Position N 32°38' W 117°06'.

Length 56 m; draft 4 m.

Type: Towing. MMSI: 319266000.

Date/timePositionNaut miles runAvg speedWind from/ knotsBaromVisibWave heightAir tempDewpointWater temp
2016-Aug-23 18:30N 32°38' W 117°06'0 0.0
2016-Aug-23 17:33N 32°38' W 117°06'0 0.0
2016-Aug-23 16:33N 32°38' W 117°06'0 0.0
2016-Aug-23 15:33N 32°38' W 117°06'0 0.0
2016-Aug-23 14:30N 32°38' W 117°06'0 0.0
2016-Aug-23 13:33N 32°38' W 117°06'0 0.0
2016-Aug-23 12:33N 32°38' W 117°06'0 0.0
2016-Aug-23 11:33N 32°38' W 117°06'0 0.0
2016-Aug-23 10:33N 32°38' W 117°06'0 0.0
2016-Aug-23 09:33N 32°38' W 117°06'0 0.0
2016-Aug-23 08:33N 32°38' W 117°06'0 0.0
2016-Aug-23 07:33N 32°38' W 117°06'0 0.0
2016-Aug-23 06:33N 32°38' W 117°06'0 0.0
2016-Aug-23 05:33N 32°38' W 117°06'0 0.0
2016-Aug-23 04:33N 32°38' W 117°06'0 0.0
2016-Aug-23 03:33N 32°38' W 117°06'0 0.0
2016-Aug-23 02:33N 32°38' W 117°06'0 0.0
2016-Aug-23 01:33N 32°38' W 117°06'0 0.0
2016-Aug-23 00:33N 32°38' W 117°06'6 5.6
2016-Aug-22 23:34N 32°42' W 117°10'6 6.2
2016-Aug-22 22:33N 32°37' W 117°15'1010.5
2016-Aug-22 21:34N 32°45' W 117°24'8 8.3
2016-Aug-22 20:34N 32°50' W 117°32'9 9.5
2016-Aug-22 19:33N 32°57' W 117°40'1111.4
2016-Aug-22 18:34N 33°04' W 117°50'1312.5
2016-Aug-22 17:33N 33°13' W 118°01'1212.2
2016-Aug-22 16:33N 33°21' W 118°12'1212.0
2016-Aug-22 15:34N 33°30' W 118°21'1212.1
2016-Aug-22 14:33N 33°39' W 118°30'1312.5
2016-Aug-22 13:33N 33°51' W 118°28'7 0.6
2016-Aug-22 02:29N 33°58' W 118°27'0 0.0
2016-Aug-21 06:14N 33°58' W 118°27'0 0.0
2016-Aug-21 04:26N 33°58' W 118°27'  
2016-Aug-18 22:20N 33°58' W 118°27'0 0.0
2016-Aug-18 10:29N 33°58' W 118°27'0 0.0
2016-Aug-18 08:20N 33°58' W 118°27'0 0.0
2016-Aug-18 07:29N 33°58' W 118°27'0 0.0
2016-Aug-18 06:23N 33°58' W 118°27'0 0.0
2016-Aug-18 04:29N 33°58' W 118°27'0 0.0
2016-Aug-18 02:05N 33°58' W 118°27'0 0.0
2016-Aug-17 15:29N 33°58' W 118°27'0 0.0
2016-Aug-17 09:32N 33°58' W 118°27'0 0.0
2016-Aug-17 06:14N 33°58' W 118°27'0 0.0
2016-Aug-17 00:23N 33°58' W 118°27'0 0.0
2016-Aug-16 22:32N 33°58' W 118°27'0 0.0
2016-Aug-16 21:32N 33°58' W 118°27'0 0.0
2016-Aug-16 15:05N 33°58' W 118°27'0 0.0
2016-Aug-16 14:32N 33°58' W 118°27'0 0.0
2016-Aug-16 13:32N 33°58' W 118°27'0 0.0
2016-Aug-16 12:23N 33°58' W 118°27'0 0.0
2016-Aug-16 07:14N 33°58' W 118°27'0 0.0
2016-Aug-15 22:29N 33°58' W 118°27'0 0.0
2016-Aug-15 21:17N 33°58' W 118°27'0 0.0
2016-Aug-15 07:26N 33°58' W 118°27'0 0.0
2016-Aug-15 06:29N 33°58' W 118°27'  
Track history (hours):
 
Tides and Currents Weather Stations Pressure Air Temp Water Temp Dewpoint Dewpoint Depression Visibility Wind Speed Wind Dir Waves Ship Positions

Sy Asahi

Last reported at 2016-Aug-23 18:30 UTC. Time now 2016-Aug-29 00:12 UTC.
Position N 32°38' W 117°06'.

Length 56 m; draft 4 m.

Type: Towing. MMSI: 319266000.

Date/timePositionNaut miles runAvg speedWind from/ knotsBaromVisibWave heightAir tempDewpointWater temp
2016-Aug-23 18:30N 32°38' W 117°06'0 0.0
2016-Aug-23 17:33N 32°38' W 117°06'0 0.0
2016-Aug-23 16:33N 32°38' W 117°06'0 0.0
2016-Aug-23 15:33N 32°38' W 117°06'0 0.0
2016-Aug-23 14:30N 32°38' W 117°06'0 0.0
2016-Aug-23 13:33N 32°38' W 117°06'0 0.0
2016-Aug-23 12:33N 32°38' W 117°06'0 0.0
2016-Aug-23 11:33N 32°38' W 117°06'0 0.0
2016-Aug-23 10:33N 32°38' W 117°06'0 0.0
2016-Aug-23 09:33N 32°38' W 117°06'0 0.0
2016-Aug-23 08:33N 32°38' W 117°06'0 0.0
2016-Aug-23 07:33N 32°38' W 117°06'0 0.0
2016-Aug-23 06:33N 32°38' W 117°06'0 0.0
2016-Aug-23 05:33N 32°38' W 117°06'0 0.0
2016-Aug-23 04:33N 32°38' W 117°06'0 0.0
2016-Aug-23 03:33N 32°38' W 117°06'0 0.0
2016-Aug-23 02:33N 32°38' W 117°06'0 0.0
2016-Aug-23 01:33N 32°38' W 117°06'0 0.0
2016-Aug-23 00:33N 32°38' W 117°06'6 5.6
2016-Aug-22 23:34N 32°42' W 117°10'6 6.2
2016-Aug-22 22:33N 32°37' W 117°15'1010.5
2016-Aug-22 21:34N 32°45' W 117°24'8 8.3
2016-Aug-22 20:34N 32°50' W 117°32'9 9.5
2016-Aug-22 19:33N 32°57' W 117°40'1111.4
2016-Aug-22 18:34N 33°04' W 117°50'1312.5
2016-Aug-22 17:33N 33°13' W 118°01'1212.2
2016-Aug-22 16:33N 33°21' W 118°12'1212.0
2016-Aug-22 15:34N 33°30' W 118°21'1212.1
2016-Aug-22 14:33N 33°39' W 118°30'1312.5
2016-Aug-22 13:33N 33°51' W 118°28'7 0.6
2016-Aug-22 02:29N 33°58' W 118°27'0 0.0
2016-Aug-21 06:14N 33°58' W 118°27'0 0.0
2016-Aug-21 04:26N 33°58' W 118°27'  
2016-Aug-18 22:20N 33°58' W 118°27'0 0.0
2016-Aug-18 10:29N 33°58' W 118°27'0 0.0
2016-Aug-18 08:20N 33°58' W 118°27'0 0.0
2016-Aug-18 07:29N 33°58' W 118°27'0 0.0
2016-Aug-18 06:23N 33°58' W 118°27'0 0.0
2016-Aug-18 04:29N 33°58' W 118°27'0 0.0
2016-Aug-18 02:05N 33°58' W 118°27'0 0.0
2016-Aug-17 15:29N 33°58' W 118°27'0 0.0
2016-Aug-17 09:32N 33°58' W 118°27'0 0.0
2016-Aug-17 06:14N 33°58' W 118°27'0 0.0
2016-Aug-17 00:23N 33°58' W 118°27'0 0.0
2016-Aug-16 22:32N 33°58' W 118°27'0 0.0
2016-Aug-16 21:32N 33°58' W 118°27'0 0.0
2016-Aug-16 15:05N 33°58' W 118°27'0 0.0
2016-Aug-16 14:32N 33°58' W 118°27'0 0.0
2016-Aug-16 13:32N 33°58' W 118°27'0 0.0
2016-Aug-16 12:23N 33°58' W 118°27'0 0.0
2016-Aug-16 07:14N 33°58' W 118°27'0 0.0
2016-Aug-15 22:29N 33°58' W 118°27'0 0.0
2016-Aug-15 21:17N 33°58' W 118°27'0 0.0
2016-Aug-15 07:26N 33°58' W 118°27'0 0.0
2016-Aug-15 06:29N 33°58' W 118°27'  

Dump ship's entire track history